Qashlu, Yemen
Current Conditions -  °F | °C
As of 7:00 AM on Sunday 21 Dec 2014 (Local Time) from OYSQ Reporting Station
Broken Clouds Broken Clouds  
Wind Chill: 75°   Ceiling: 7000
Heat Index: 75°   Visibility: 6mi
Dew Point: 68°   Wind: 17mph
Humidity: 78%   Direction: 60°ENE
Pressure: 30"   Gusts: NA
Location:  12.61°N, 53.86°E
Report Text: OYSQ 210400Z 06015KT 9999 SCT018 BKN070 24/20 Q1016
Loading
Personal Weather Stations






























Interactive Weather Map New forecast layout! Learn more

10-Day Weather Forecast

Advertisements
Track Severe Weather on mobile